Time;durP1;ratioP1;P1;durP2;ratioP2;P2;SDS_P1;SDS_P2;PMS_P1;PMS_P2;Temp;Humidity;BMP_temperature;BMP_pressure;BME280_temperature;BME280_humidity;BME280_pressure;Samples;Min_cycle;Max_cycle;Signal;HPM_P1;HPM_P2
2022/07/02 00:01:22;;;;;;;7.90;4.68;;;13.20;99.90;;;;;;5046824;28;20040;-57
2022/07/02 00:03:55;;;;;;;6.75;4.38;;;13.20;99.90;;;;;;5041870;28;20573;-57
2022/07/02 00:06:28;;;;;;;7.63;5.55;;;13.10;99.90;;;;;;5008581;28;20800;-56
2022/07/02 00:08:55;;;;;;;8.57;4.40;;;13.20;99.90;;;;;;5026440;28;20127;-56
2022/07/02 00:11:21;;;;;;;7.45;4.20;;;13.10;99.90;;;;;;5042123;28;20041;-56
2022/07/02 00:13:49;;;;;;;8.93;4.78;;;13.10;99.90;;;;;;5041398;28;20852;-56
2022/07/02 00:16:15;;;;;;;6.05;4.68;;;13.00;99.90;;;;;;5038631;28;20448;-56
2022/07/02 00:18:42;;;;;;;7.45;4.60;;;13.00;99.90;;;;;;5007798;28;20411;-56
2022/07/02 00:21:10;;;;;;;7.68;4.90;;;12.90;99.90;;;;;;5029544;28;20060;-55
2022/07/02 00:23:36;;;;;;;7.25;4.72;;;12.90;99.90;;;;;;5037449;28;20049;-53
2022/07/02 00:26:08;;;;;;;7.72;5.25;;;12.90;99.90;;;;;;5039168;28;20419;-56
2022/07/02 00:28:40;;;;;;;7.35;5.32;;;12.90;99.90;;;;;;5023207;28;20072;-58
2022/07/02 00:31:06;;;;;;;7.18;4.82;;;12.90;99.90;;;;;;5035113;28;20084;-56
2022/07/02 00:33:35;;;;;;;6.68;4.85;;;12.90;99.90;;;;;;5038035;28;20123;-55
2022/07/02 00:36:02;;;;;;;7.68;5.30;;;12.80;99.90;;;;;;5042224;28;20507;-56
2022/07/02 00:38:29;;;;;;;6.30;5.00;;;12.80;99.90;;;;;;5043008;28;20048;-55
2022/07/02 00:40:55;;;;;;;9.73;5.03;;;12.80;99.90;;;;;;5037112;28;20203;-54
2022/07/02 00:43:22;;;;;;;7.72;5.45;;;12.70;99.90;;;;;;5036202;28;20056;-58
2022/07/02 00:45:48;;;;;;;8.93;5.40;;;12.80;99.90;;;;;;5044095;28;20053;-56
2022/07/02 00:48:14;;;;;;;5.72;5.07;;;12.70;99.90;;;;;;5022857;28;20150;-56
2022/07/02 00:50:40;;;;;;;7.60;6.25;;;12.70;99.90;;;;;;5038924;28;21269;-56
2022/07/02 00:53:06;;;;;;;8.55;5.35;;;12.70;99.90;;;;;;5050858;28;20795;-56
2022/07/02 00:55:33;;;;;;;7.55;5.25;;;12.60;99.90;;;;;;5041353;28;20048;-56
2022/07/02 00:57:59;;;;;;;8.85;5.88;;;12.60;99.90;;;;;;5026003;28;20933;-54
2022/07/02 01:00:25;;;;;;;7.68;5.70;;;12.60;99.90;;;;;;5013857;28;20060;-55
2022/07/02 01:02:55;;;;;;;6.38;5.43;;;12.50;99.90;;;;;;5039968;28;20060;-55
2022/07/02 01:05:22;;;;;;;7.18;5.60;;;12.50;99.90;;;;;;5045788;28;20061;-55
2022/07/02 01:10:52;;;;;;;10.27;5.97;;;12.50;99.90;;;;;;5041696;28;20056;-54
2022/07/02 01:13:19;;;;;;;8.02;5.53;;;12.50;99.90;;;;;;5041003;28;20052;-57
2022/07/02 01:15:45;;;;;;;7.05;5.90;;;12.50;99.90;;;;;;5041145;28;20761;-58
2022/07/02 01:18:17;;;;;;;8.32;6.20;;;12.50;99.90;;;;;;5038603;28;20126;-56
2022/07/02 01:20:44;;;;;;;10.02;6.68;;;12.50;99.90;;;;;;5036669;28;20072;-58
2022/07/02 01:23:10;;;;;;;9.68;5.65;;;12.50;99.90;;;;;;5024046;28;20052;-54
2022/07/02 01:25:36;;;;;;;5.93;5.38;;;12.50;99.90;;;;;;5042354;28;20527;-55
2022/07/02 01:28:03;;;;;;;7.50;5.95;;;12.50;99.90;;;;;;5040759;28;20040;-54
2022/07/02 01:30:29;;;;;;;8.68;5.63;;;12.50;99.90;;;;;;5039446;28;20049;-54
2022/07/02 01:32:55;;;;;;;9.20;6.57;;;12.40;99.90;;;;;;5036587;28;20049;-58
2022/07/02 01:35:22;;;;;;;8.77;5.18;;;12.40;99.90;;;;;;5037486;28;20041;-58
2022/07/02 01:37:52;;;;;;;9.20;5.78;;;12.40;99.90;;;;;;5036666;28;20087;-59
2022/07/02 01:40:18;;;;;;;7.65;5.53;;;12.40;99.90;;;;;;5040560;28;20048;-58
2022/07/02 01:42:45;;;;;;;8.30;5.75;;;12.40;99.90;;;;;;5024333;28;20140;-58
2022/07/02 01:45:11;;;;;;;6.93;6.05;;;12.40;99.90;;;;;;5041079;28;20091;-56
2022/07/02 01:47:37;;;;;;;8.93;6.30;;;12.30;99.90;;;;;;5040002;28;20057;-57
2022/07/02 01:50:03;;;;;;;8.73;5.85;;;12.40;99.90;;;;;;5005741;28;20592;-58
2022/07/02 01:52:29;;;;;;;8.35;6.00;;;12.30;99.90;;;;;;5039231;28;20049;-57
2022/07/02 01:54:55;;;;;;;8.63;6.25;;;12.30;99.90;;;;;;5038352;28;20075;-56
2022/07/02 01:57:22;;;;;;;6.88;5.80;;;12.30;99.90;;;;;;5038326;28;20127;-58
2022/07/02 01:59:48;;;;;;;7.88;6.03;;;12.30;99.90;;;;;;5037292;28;20124;-55
2022/07/02 02:02:14;;;;;;;7.10;6.03;;;12.30;99.90;;;;;;5018418;28;20045;-56
2022/07/02 02:04:40;;;;;;;9.60;6.18;;;12.30;99.90;;;;;;5038526;28;20757;-55
2022/07/02 02:07:07;;;;;;;10.05;6.55;;;12.30;99.90;;;;;;5035628;28;20056;-55
2022/07/02 02:09:33;;;;;;;8.35;6.65;;;12.20;99.90;;;;;;5019939;28;20570;-53
2022/07/02 02:11:59;;;;;;;7.82;6.05;;;12.20;99.90;;;;;;5039027;28;20044;-55
2022/07/02 02:14:25;;;;;;;10.60;6.45;;;12.20;99.90;;;;;;5039039;28;20495;-56
2022/07/02 02:16:54;;;;;;;8.68;6.72;;;12.20;99.90;;;;;;5040022;28;20053;-58
2022/07/02 02:19:20;;;;;;;8.85;6.35;;;12.20;99.90;;;;;;5040230;28;20124;-56
2022/07/02 02:21:46;;;;;;;7.50;6.47;;;12.20;99.90;;;;;;5040008;28;20128;-56
2022/07/02 02:24:13;;;;;;;8.85;7.00;;;12.20;99.90;;;;;;5022314;28;20033;-53
2022/07/02 02:26:39;;;;;;;8.57;7.28;;;12.20;99.90;;;;;;5048171;28;20123;-56
2022/07/02 02:29:05;;;;;;;8.02;6.80;;;12.20;99.90;;;;;;5034769;28;20547;-56
2022/07/02 02:31:31;;;;;;;9.52;6.10;;;12.20;99.90;;;;;;5019941;28;20061;-59
2022/07/02 02:33:57;;;;;;;11.63;6.75;;;12.20;99.90;;;;;;5036229;28;20132;-58
2022/07/02 02:36:23;;;;;;;10.68;7.57;;;12.10;99.90;;;;;;5022694;28;20124;-59
2022/07/02 02:38:49;;;;;;;8.68;7.53;;;12.10;99.90;;;;;;5039295;28;20124;-58
2022/07/02 02:41:16;;;;;;;8.82;7.03;;;12.10;99.90;;;;;;5042109;28;20395;-59
2022/07/02 02:43:42;;;;;;;10.55;6.82;;;12.10;99.90;;;;;;5042086;28;20087;-59
2022/07/02 02:46:09;;;;;;;8.57;7.13;;;12.10;99.90;;;;;;5022091;28;20053;-59
2022/07/02 02:48:36;;;;;;;10.35;7.72;;;12.10;99.90;;;;;;5036799;28;20045;-56
2022/07/02 02:51:03;;;;;;;11.20;7.05;;;12.10;99.90;;;;;;5029807;28;20076;-55
2022/07/02 02:53:30;;;;;;;8.52;7.10;;;12.10;99.90;;;;;;5038716;28;20088;-56
2022/07/02 02:55:58;;;;;;;9.88;7.13;;;12.10;99.90;;;;;;5036987;28;20119;-55
2022/07/02 02:58:24;;;;;;;9.68;6.95;;;12.00;99.90;;;;;;5037649;28;20041;-55
2022/07/02 03:00:50;;;;;;;8.18;6.43;;;12.00;99.90;;;;;;5021244;28;20060;-56
2022/07/02 03:03:16;;;;;;;11.43;7.00;;;12.00;99.90;;;;;;5023082;28;20065;-55
2022/07/02 03:05:42;;;;;;;8.20;7.40;;;12.00;99.90;;;;;;5037947;28;20051;-56
2022/07/02 03:08:09;;;;;;;13.00;7.30;;;12.00;99.90;;;;;;5036251;28;20107;-56
2022/07/02 03:10:35;;;;;;;8.25;6.43;;;12.00;99.90;;;;;;5025718;28;20508;-55
2022/07/02 03:13:01;;;;;;;9.32;7.72;;;12.00;99.90;;;;;;5039285;28;20053;-56
2022/07/02 03:15:27;;;;;;;8.68;7.22;;;12.00;99.90;;;;;;5011470;28;20060;-56
2022/07/02 03:17:53;;;;;;;13.52;7.80;;;12.00;99.90;;;;;;5022490;28;20064;-54
2022/07/02 03:20:19;;;;;;;8.35;6.95;;;11.90;99.90;;;;;;5038920;28;20695;-55
2022/07/02 03:22:45;;;;;;;9.27;7.60;;;11.90;99.90;;;;;;5023262;28;20080;-56
2022/07/02 03:25:11;;;;;;;9.60;7.38;;;11.90;99.90;;;;;;5020940;28;20052;-56
2022/07/02 03:27:38;;;;;;;10.07;7.53;;;11.90;99.90;;;;;;5041703;28;20045;-56
2022/07/02 03:30:06;;;;;;;8.65;7.32;;;11.90;99.90;;;;;;5009635;28;20523;-55
2022/07/02 03:32:32;;;;;;;11.05;7.75;;;11.90;99.90;;;;;;5025126;28;20103;-56
2022/07/02 03:34:58;;;;;;;10.20;7.65;;;11.80;99.90;;;;;;5031974;28;20056;-56
2022/07/02 03:37:28;;;;;;;9.82;8.23;;;11.90;99.90;;;;;;5058069;28;20045;-56
2022/07/02 03:39:54;;;;;;;10.98;8.35;;;11.80;99.90;;;;;;5018404;28;20135;-55
2022/07/02 03:42:21;;;;;;;8.82;7.63;;;11.80;99.90;;;;;;5042521;28;20041;-55
2022/07/02 03:44:47;;;;;;;10.00;7.93;;;11.80;99.90;;;;;;5024352;28;20167;-58
2022/07/02 03:47:13;;;;;;;11.00;8.05;;;11.80;99.90;;;;;;5037037;28;20670;-58
2022/07/02 03:49:39;;;;;;;10.35;8.07;;;11.80;99.90;;;;;;5025047;28;20067;-56
2022/07/02 03:52:06;;;;;;;8.38;7.45;;;11.80;99.90;;;;;;5040966;28;20032;-56
2022/07/02 03:54:32;;;;;;;9.43;8.50;;;11.80;99.90;;;;;;5022182;28;20060;-56
2022/07/02 03:56:58;;;;;;;12.43;9.60;;;11.80;99.90;;;;;;5021961;28;20127;-56
2022/07/02 03:59:24;;;;;;;10.73;9.68;;;11.80;99.90;;;;;;5043228;28;20045;-59
2022/07/02 04:01:52;;;;;;;11.18;9.90;;;11.80;99.90;;;;;;5038758;28;20056;-59
2022/07/02 04:04:19;;;;;;;12.25;10.23;;;11.80;99.90;;;;;;5039756;28;20132;-57
2022/07/02 04:06:45;;;;;;;13.82;9.95;;;11.80;99.90;;;;;;5040322;28;20106;-58
2022/07/02 04:09:12;;;;;;;11.35;10.02;;;11.90;99.90;;;;;;5039046;28;20566;-58
2022/07/02 04:11:39;;;;;;;13.35;11.07;;;12.00;99.90;;;;;;5038886;28;20047;-57
2022/07/02 04:14:05;;;;;;;12.25;10.90;;;12.00;99.90;;;;;;5047333;28;20049;-56
2022/07/02 04:16:31;;;;;;;11.95;10.50;;;12.10;99.90;;;;;;5041699;28;20136;-56
2022/07/02 04:18:57;;;;;;;13.45;10.63;;;12.10;99.90;;;;;;5040956;28;20052;-58
2022/07/02 04:21:23;;;;;;;13.02;11.73;;;12.20;99.90;;;;;;5041540;28;20044;-59
2022/07/02 04:23:49;;;;;;;12.88;11.52;;;12.20;99.90;;;;;;5039315;28;20446;-58
2022/07/02 04:26:15;;;;;;;12.55;11.25;;;12.30;99.90;;;;;;5041645;28;20049;-55
2022/07/02 04:28:41;;;;;;;13.00;11.73;;;12.40;99.90;;;;;;5044267;28;20111;-56
2022/07/02 04:31:07;;;;;;;12.77;11.50;;;12.40;99.90;;;;;;5024367;28;20602;-55
2022/07/02 04:33:33;;;;;;;13.05;11.73;;;12.50;99.90;;;;;;5030536;28;20091;-55
2022/07/02 04:35:59;;;;;;;12.65;11.45;;;12.50;99.90;;;;;;5038571;28;20144;-56
2022/07/02 04:38:25;;;;;;;12.65;11.35;;;12.60;99.90;;;;;;5041990;28;20052;-55
2022/07/02 04:40:52;;;;;;;13.25;11.85;;;12.70;99.90;;;;;;5042102;28;20037;-56
2022/07/02 04:43:18;;;;;;;12.35;11.20;;;12.80;99.90;;;;;;5041703;28;20458;-58
2022/07/02 04:45:44;;;;;;;17.63;12.00;;;12.80;99.90;;;;;;5036455;28;20037;-59
2022/07/02 04:48:11;;;;;;;13.38;11.35;;;12.90;99.90;;;;;;5025819;28;20053;-55
2022/07/02 04:50:37;;;;;;;12.82;11.52;;;13.00;99.90;;;;;;5023531;28;20067;-55
2022/07/02 04:53:03;;;;;;;13.07;11.77;;;13.10;99.90;;;;;;5041024;28;20779;-55
2022/07/02 04:55:29;;;;;;;15.10;11.93;;;13.20;99.90;;;;;;5039153;28;20053;-55
2022/07/02 04:57:55;;;;;;;10.77;9.77;;;13.30;99.90;;;;;;5037501;28;20057;-57
2022/07/02 05:00:21;;;;;;;12.20;9.75;;;13.40;99.90;;;;;;5046308;28;20055;-56
2022/07/02 05:02:47;;;;;;;12.38;10.45;;;13.80;99.90;;;;;;5033547;28;20080;-55
2022/07/02 05:05:14;;;;;;;11.02;9.68;;;13.90;99.90;;;;;;5020440;28;20041;-56
2022/07/02 05:07:40;;;;;;;11.18;9.60;;;13.90;99.90;;;;;;5041081;28;20199;-57
2022/07/02 05:10:06;;;;;;;9.65;8.30;;;14.10;99.90;;;;;;5038321;28;20056;-56
2022/07/02 05:12:35;;;;;;;9.48;8.05;;;14.40;99.90;;;;;;5040369;28;20533;-56
2022/07/02 05:15:01;;;;;;;11.13;8.20;;;14.80;99.90;;;;;;5042401;28;20087;-57
2022/07/02 05:17:27;;;;;;;9.27;6.70;;;15.40;99.90;;;;;;5042238;28;20753;-56
2022/07/02 05:19:53;;;;;;;9.95;6.45;;;15.80;99.90;;;;;;5042888;28;20144;-60
2022/07/02 05:22:19;;;;;;;8.98;6.10;;;16.20;99.90;;;;;;5040404;28;20045;-60
2022/07/02 05:24:45;;;;;;;10.35;6.22;;;16.40;99.90;;;;;;5041567;28;20565;-59
2022/07/02 05:27:11;;;;;;;10.68;5.82;;;16.60;99.90;;;;;;5040294;28;20049;-56
2022/07/02 05:29:37;;;;;;;8.80;5.70;;;16.70;99.90;;;;;;5044603;28;20515;-56
2022/07/02 05:32:03;;;;;;;6.57;5.40;;;16.90;99.90;;;;;;5042369;28;20084;-57
2022/07/02 05:34:29;;;;;;;6.78;5.10;;;17.20;99.90;;;;;;5043253;28;20103;-60
2022/07/02 05:36:56;;;;;;;6.55;4.75;;;17.20;99.90;;;;;;5043007;28;20127;-60
2022/07/02 05:39:22;;;;;;;7.78;4.88;;;17.30;99.90;;;;;;5041023;28;20052;-62
2022/07/02 05:41:48;;;;;;;6.93;5.45;;;17.50;99.90;;;;;;5038283;28;20075;-60
2022/07/02 05:44:14;;;;;;;7.55;5.32;;;17.50;99.90;;;;;;5040206;28;20045;-61
2022/07/02 05:46:40;;;;;;;8.43;5.55;;;17.70;99.90;;;;;;5046070;28;20048;-60
2022/07/02 05:49:06;;;;;;;6.20;4.82;;;17.90;99.90;;;;;;5012617;28;20389;-60
2022/07/02 05:51:32;;;;;;;7.57;5.15;;;18.00;99.90;;;;;;5040083;28;20151;-61
2022/07/02 05:53:58;;;;;;;9.40;4.90;;;18.00;99.90;;;;;;5039731;28;20048;-61
2022/07/02 05:56:24;;;;;;;7.57;4.55;;;18.10;99.90;;;;;;5022436;28;20075;-60
2022/07/02 05:58:50;;;;;;;5.47;4.22;;;18.20;99.90;;;;;;5006664;28;20084;-58
2022/07/02 06:01:16;;;;;;;7.57;4.47;;;18.30;99.90;;;;;;5042218;28;20060;-61
2022/07/02 06:03:43;;;;;;;9.63;4.53;;;18.10;99.90;;;;;;5016072;28;20072;-57
2022/07/02 06:08:56;;;;;;;8.82;4.50;;;18.40;99.90;;;;;;5029605;28;20056;-61
2022/07/02 06:11:23;;;;;;;10.98;4.78;;;18.40;99.90;;;;;;5030453;28;20567;-61
2022/07/02 06:13:49;;;;;;;20.08;14.80;;;18.60;99.90;;;;;;5012090;28;20052;-60
2022/07/02 06:16:15;;;;;;;7.68;4.97;;;18.80;99.90;;;;;;5036213;28;20051;-61
2022/07/02 06:18:41;;;;;;;7.38;3.67;;;18.80;99.90;;;;;;5040126;28;20051;-60
2022/07/02 06:21:07;;;;;;;11.32;8.32;;;18.90;99.90;;;;;;5024856;28;20404;-57
2022/07/02 06:23:33;;;;;;;17.55;12.75;;;19.10;99.90;;;;;;5022898;28;20515;-57
2022/07/02 06:25:59;;;;;;;7.47;4.03;;;19.30;99.90;;;;;;5036128;28;20045;-56
2022/07/02 06:28:25;;;;;;;5.75;3.72;;;19.10;99.90;;;;;;5024043;28;20040;-57
2022/07/02 06:30:52;;;;;;;8.98;5.78;;;19.30;99.90;;;;;;5006817;28;20095;-57
2022/07/02 06:33:18;;;;;;;6.90;3.78;;;19.50;99.90;;;;;;5035637;28;20157;-57
2022/07/02 06:35:44;;;;;;;8.02;5.50;;;19.60;99.90;;;;;;5028845;28;20045;-57
2022/07/02 06:38:11;;;;;;;8.82;6.05;;;19.70;99.90;;;;;;5023116;28;20041;-57
2022/07/02 06:40:37;;;;;;;5.45;2.75;;;19.90;99.90;;;;;;5039587;28;20056;-57
2022/07/02 06:43:03;;;;;;;51.53;46.30;;;20.00;99.90;;;;;;5014146;28;20053;-57
2022/07/02 06:45:29;;;;;;;10.85;7.85;;;20.00;99.90;;;;;;5039091;28;20088;-57
2022/07/02 06:47:55;;;;;;;9.57;7.10;;;20.00;99.90;;;;;;5020719;28;20124;-57
2022/07/02 06:50:21;;;;;;;12.75;10.00;;;20.10;99.90;;;;;;5019807;28;20798;-57
2022/07/02 06:52:47;;;;;;;8.88;5.53;;;20.20;99.90;;;;;;5005420;28;20516;-58
2022/07/02 06:55:14;;;;;;;13.00;9.75;;;20.10;99.90;;;;;;5034180;28;20041;-56
2022/07/02 06:57:40;;;;;;;6.75;2.70;;;20.30;99.90;;;;;;5020475;28;20127;-57
2022/07/02 07:00:07;;;;;;;5.10;3.33;;;20.30;99.90;;;;;;5033916;28;20153;-57
2022/07/02 07:02:33;;;;;;;7.88;5.03;;;20.60;99.90;;;;;;5037909;28;20056;-61
2022/07/02 07:04:59;;;;;;;5.15;2.30;;;20.40;99.90;;;;;;5032856;28;20385;-60
2022/07/02 07:07:28;;;;;;;5.65;2.58;;;20.70;99.90;;;;;;5031805;28;20121;-57
2022/07/02 07:09:55;;;;;;;5.68;2.65;;;20.40;99.90;;;;;;5020590;28;20625;-56
2022/07/02 07:12:21;;;;;;;5.05;2.53;;;20.80;99.90;;;;;;5039911;28;20644;-59
2022/07/02 07:14:47;;;;;;;5.88;2.50;;;20.70;99.90;;;;;;5022530;28;20127;-56
2022/07/02 07:17:14;;;;;;;22.27;20.02;;;20.40;99.90;;;;;;5032591;28;20053;-57
2022/07/02 07:19:40;;;;;;;17.00;14.60;;;20.60;99.90;;;;;;5040030;28;20052;-59
2022/07/02 07:22:08;;;;;;;9.55;6.70;;;20.60;99.90;;;;;;5040656;28;20545;-57
2022/07/02 07:24:35;;;;;;;4.90;2.53;;;20.60;99.90;;;;;;5037989;28;20133;-57
2022/07/02 07:27:01;;;;;;;10.57;5.95;;;20.90;99.90;;;;;;5041266;28;20049;-57
2022/07/02 07:29:27;;;;;;;5.63;3.55;;;21.10;99.90;;;;;;5021418;28;20045;-57
2022/07/02 07:31:53;;;;;;;4.13;2.42;;;21.40;99.90;;;;;;5034693;28;20045;-57
2022/07/02 07:34:20;;;;;;;5.63;3.33;;;21.30;99.90;;;;;;5039608;28;20406;-56
2022/07/02 07:36:46;;;;;;;8.63;5.40;;;20.90;99.90;;;;;;5040197;28;20053;-56
2022/07/02 07:39:12;;;;;;;5.35;2.35;;;20.90;99.90;;;;;;5038641;28;20697;-57
2022/07/02 07:41:39;;;;;;;13.43;10.88;;;20.80;99.90;;;;;;5021980;28;20427;-60
2022/07/02 07:44:05;;;;;;;16.23;11.50;;;21.00;99.90;;;;;;5030938;28;20049;-60
2022/07/02 07:46:32;;;;;;;4.32;2.22;;;20.90;99.90;;;;;;5018693;28;20135;-60
2022/07/02 07:48:58;;;;;;;7.20;2.33;;;21.00;99.90;;;;;;5039880;28;20412;-60
2022/07/02 07:51:24;;;;;;;3.55;1.67;;;21.10;99.90;;;;;;5036926;28;20056;-57
2022/07/02 07:53:51;;;;;;;6.82;2.47;;;21.40;99.90;;;;;;5021693;28;20540;-56
2022/07/02 07:56:18;;;;;;;4.65;2.22;;;21.40;99.90;;;;;;5038857;28;20057;-60
2022/07/02 07:58:44;;;;;;;13.05;11.00;;;21.10;99.90;;;;;;5036205;28;20057;-60
2022/07/02 08:01:10;;;;;;;10.80;8.27;;;21.10;99.90;;;;;;5045843;28;20045;-60
2022/07/02 08:03:37;;;;;;;4.97;2.50;;;21.10;99.90;;;;;;5031317;28;20056;-60
2022/07/02 08:06:03;;;;;;;3.92;1.65;;;20.80;99.90;;;;;;5033239;28;20781;-60
2022/07/02 08:08:29;;;;;;;2.60;1.17;;;21.10;99.90;;;;;;5039078;28;20116;-59
2022/07/02 08:10:55;;;;;;;3.85;1.65;;;21.20;99.90;;;;;;5019968;28;20057;-57
2022/07/02 08:13:21;;;;;;;7.07;4.68;;;21.40;99.90;;;;;;5035123;28;20115;-56
2022/07/02 08:15:47;;;;;;;5.47;2.72;;;21.50;99.90;;;;;;5033574;28;20040;-57
2022/07/02 08:18:14;;;;;;;7.32;3.78;;;21.60;99.90;;;;;;5039423;28;20049;-56
2022/07/02 08:20:40;;;;;;;4.35;1.73;;;21.60;99.90;;;;;;5023743;28;20049;-51
2022/07/02 08:23:06;;;;;;;5.38;2.38;;;21.80;99.90;;;;;;4991795;28;20176;-47
2022/07/02 08:25:32;;;;;;;4.72;2.08;;;21.90;99.90;;;;;;5023276;28;20071;-48
2022/07/02 08:27:58;;;;;;;4.47;1.55;;;22.10;99.90;;;;;;5025891;28;20041;-52
2022/07/02 08:30:24;;;;;;;5.25;1.83;;;22.20;99.90;;;;;;5031192;28;20056;-51
2022/07/02 08:32:51;;;;;;;3.78;1.55;;;22.30;99.90;;;;;;5024483;28;20160;-51
2022/07/02 08:35:18;;;;;;;2.75;1.38;;;22.50;99.90;;;;;;5036613;28;20803;-50
2022/07/02 08:37:44;;;;;;;3.17;1.10;;;22.40;95.90;;;;;;5041466;28;20041;-53
2022/07/02 08:40:11;;;;;;;20.58;16.38;;;22.50;98.90;;;;;;5043766;28;20037;-50
2022/07/02 08:42:41;;;;;;;7.63;5.53;;;22.80;99.20;;;;;;5031750;28;20053;-52
2022/07/02 08:45:09;;;;;;;5.32;2.97;;;22.80;92.50;;;;;;5026253;28;20115;-51
2022/07/02 08:47:39;;;;;;;3.80;1.15;;;22.70;94.40;;;;;;5036861;28;20049;-50
2022/07/02 08:50:07;;;;;;;3.60;1.42;;;23.00;96.10;;;;;;5021951;28;20061;-59
2022/07/02 08:52:33;;;;;;;3.67;1.58;;;23.20;95.80;;;;;;5043603;28;20257;-61
2022/07/02 08:55:00;;;;;;;1.98;0.82;;;23.30;94.30;;;;;;5037756;28;20129;-59
2022/07/02 08:57:27;;;;;;;2.92;1.27;;;23.10;90.10;;;;;;5039692;28;20106;-59
2022/07/02 08:59:54;;;;;;;2.67;1.25;;;23.10;71.90;;;;;;5037836;28;20037;-59
2022/07/02 09:02:21;;;;;;;1.73;0.60;;;23.10;82.60;;;;;;5042562;28;20442;-59
2022/07/02 09:04:48;;;;;;;2.90;0.75;;;23.40;80.40;;;;;;5040543;28;20059;-61
2022/07/02 09:07:16;;;;;;;2.10;0.80;;;23.70;68.80;;;;;;5040614;28;20445;-59
2022/07/02 09:09:42;;;;;;;12.23;9.43;;;23.60;69.20;;;;;;5039786;28;20045;-58
2022/07/02 09:12:14;;;;;;;4.60;2.58;;;23.70;68.40;;;;;;5006139;28;20057;-57
2022/07/02 09:14:42;;;;;;;2.88;1.20;;;23.70;59.70;;;;;;5041985;28;20411;-53
2022/07/02 09:17:10;;;;;;;3.17;1.35;;;23.70;66.30;;;;;;5031245;28;20935;-50
2022/07/02 09:19:38;;;;;;;4.03;1.20;;;23.70;64.00;;;;;;5040538;28;20822;-50
2022/07/02 09:22:05;;;;;;;2.10;1.23;;;23.60;60.80;;;;;;5038636;28;20064;-50
2022/07/02 09:24:43;;;;;;;2.90;0.73;;;23.60;66.00;;;;;;5041427;28;20106;-48
2022/07/02 09:27:12;;;;;;;2.63;0.85;;;23.90;61.10;;;;;;5036559;28;20056;-48
2022/07/02 09:29:57;;;;;;;1.58;0.50;;;23.70;66.70;;;;;;5042294;28;20128;-55
2022/07/02 09:32:23;;;;;;;2.78;0.65;;;24.50;57.70;;;;;;5036861;28;20048;-56
2022/07/02 09:34:52;;;;;;;3.35;0.50;;;24.30;57.80;;;;;;5040402;28;20110;-62
2022/07/02 09:37:24;;;;;;;2.80;0.75;;;24.60;62.20;;;;;;5033974;28;20049;-62
2022/07/02 09:39:52;;;;;;;2.33;0.68;;;24.00;56.20;;;;;;5040056;28;20037;-61
2022/07/02 09:42:29;;;;;;;1.13;0.50;;;24.30;53.10;;;;;;5044775;28;20417;-59
2022/07/02 09:44:57;;;;;;;3.15;0.60;;;24.60;60.80;;;;;;5032768;28;20045;-56
2022/07/02 09:47:40;;;;;;;2.25;0.40;;;24.80;62.80;;;;;;5039090;28;20045;-56
2022/07/02 09:50:11;;;;;;;5.15;3.85;;;24.70;53.20;;;;;;5041387;28;20061;-58
2022/07/02 09:52:51;;;;;;;;;;;24.60;55.30;;;;;;5039638;28;20060;-57
2022/07/02 09:55:20;;;;;;;5.32;2.38;;;24.60;61.00;;;;;;5040953;28;19959;-56
2022/07/02 09:57:55;;;;;;;7.10;5.50;;;24.50;56.50;;;;;;5037422;28;20053;-56
2022/07/02 10:00:23;;;;;;;4.05;1.08;;;24.50;53.30;;;;;;5035134;28;20402;-56
2022/07/02 10:02:51;;;;;;;3.88;1.35;;;24.30;55.50;;;;;;5029352;28;20048;-56
2022/07/02 10:05:23;;;;;;;3.55;0.88;;;24.60;57.30;;;;;;5032189;28;20067;-56
2022/07/02 10:07:54;;;;;;;3.60;0.95;;;24.40;53.00;;;;;;5013295;28;20068;-56
2022/07/02 10:10:26;;;;;;;;;;;25.00;54.80;;;;;;5037982;28;20045;-60
2022/07/02 10:12:53;;;;;;;3.38;1.02;;;25.20;57.60;;;;;;5039708;28;20607;-56
2022/07/02 10:15:23;;;;;;;1.98;0.60;;;25.30;57.50;;;;;;5040955;28;20590;-56
2022/07/02 10:17:54;;;;;;;3.78;1.42;;;25.60;53.00;;;;;;5041045;28;20533;-56
2022/07/02 10:20:21;;;;;;;2.70;0.63;;;25.70;53.30;;;;;;5035672;28;20127;-57
2022/07/02 10:22:51;;;;;;;2.83;0.70;;;25.60;60.80;;;;;;5037340;28;20422;-58
2022/07/02 10:25:20;;;;;;;1.15;0.60;;;25.80;55.30;;;;;;5038579;28;20041;-58
2022/07/02 10:27:47;;;;;;;2.88;0.52;;;25.60;50.90;;;;;;5040941;28;20041;-58
2022/07/02 10:30:27;;;;;;;2.40;0.80;;;26.20;51.40;;;;;;5038724;28;20135;-60
2022/07/02 10:33:21;;;;;;;1.70;0.80;;;26.30;53.40;;;;;;5038496;28;20847;-57
2022/07/02 10:35:49;;;;;;;1.80;0.60;;;26.40;54.50;;;;;;5036870;28;20128;-57
2022/07/02 10:38:26;;;;;;;1.45;0.52;;;25.70;53.70;;;;;;5042817;28;20045;-60
2022/07/02 10:40:52;;;;;;;1.83;0.52;;;25.40;52.40;;;;;;5039808;28;20049;-59
2022/07/02 10:43:19;;;;;;;32.95;29.80;;;25.30;53.40;;;;;;5036732;28;20040;-63
2022/07/02 10:45:46;;;;;;;2.25;1.30;;;24.90;52.20;;;;;;5037752;28;20057;-61
2022/07/02 10:48:13;;;;;;;6.22;3.28;;;25.00;52.80;;;;;;5034689;28;20041;-62
2022/07/02 10:50:44;;;;;;;4.65;1.80;;;24.80;53.50;;;;;;5020033;28;20064;-57
2022/07/02 10:53:10;;;;;;;3.28;1.63;;;24.40;56.40;;;;;;5041501;28;20503;-57
2022/07/02 10:55:37;;;;;;;4.00;1.15;;;24.10;57.40;;;;;;5041534;28;20123;-57
2022/07/02 10:58:06;;;;;;;2.95;1.58;;;24.10;68.70;;;;;;5040848;28;20119;-57
2022/07/02 11:00:38;;;;;;;2.38;1.10;;;24.00;71.20;;;;;;5050055;28;20061;-57
2022/07/02 11:03:37;;;;;;;3.13;1.40;;;23.80;85.50;;;;;;5031588;28;20048;-58
2022/07/02 11:06:20;;;;;;;3.92;0.73;;;23.50;76.70;;;;;;5007503;28;20049;-57
2022/07/02 11:08:55;;;;;;;4.15;1.45;;;23.50;78.70;;;;;;5018471;28;20100;-58
2022/07/02 11:11:30;;;;;;;2.90;0.70;;;23.90;82.90;;;;;;5032813;28;20464;-58
2022/07/02 11:14:09;;;;;;;4.40;2.10;;;24.30;74.20;;;;;;5015105;28;20057;-58
2022/07/02 11:16:43;;;;;;;2.33;0.80;;;24.10;70.50;;;;;;5031038;28;20040;-58
2022/07/02 11:19:17;;;;;;;3.45;1.48;;;24.00;82.50;;;;;;5011581;28;20049;-56
2022/07/02 11:21:44;;;;;;;4.03;1.52;;;24.00;69.50;;;;;;5012243;28;20136;-57
2022/07/02 11:24:10;;;;;;;3.00;1.25;;;24.00;78.00;;;;;;5036500;28;20045;-56
2022/07/02 11:26:41;;;;;;;4.50;1.23;;;23.90;68.10;;;;;;5019259;28;20053;-57
2022/07/02 11:29:08;;;;;;;;;;;24.10;79.60;;;;;;5046132;28;20045;-57
2022/07/02 11:31:40;;;;;;;4.32;1.00;;;24.00;88.30;;;;;;5014333;28;19927;-57
2022/07/02 11:34:07;;;;;;;3.50;1.27;;;24.10;72.70;;;;;;5033144;28;20583;-56
2022/07/02 11:36:33;;;;;;;2.67;1.30;;;24.60;65.00;;;;;;5000511;28;20122;-57
2022/07/02 11:38:59;;;;;;;2.22;0.90;;;24.70;63.30;;;;;;5032361;28;20053;-57
2022/07/02 11:41:28;;;;;;;2.47;1.10;;;24.60;65.90;;;;;;5028368;28;20762;-61
2022/07/02 11:43:56;;;;;;;3.15;1.38;;;25.10;61.90;;;;;;5035369;28;20055;-60
2022/07/02 11:46:28;;;;;;;3.30;1.27;;;25.10;67.70;;;;;;5033095;28;20053;-60
2022/07/02 11:48:57;;;;;;;2.78;0.73;;;25.10;59.80;;;;;;5028897;28;20056;-60
2022/07/02 11:51:24;;;;;;;3.13;1.20;;;24.80;65.40;;;;;;5032067;28;20374;-61
2022/07/02 11:54:01;;;;;;;2.30;0.80;;;24.60;67.90;;;;;;5036700;28;20053;-61
2022/07/02 11:56:28;;;;;;;2.85;1.45;;;25.00;62.50;;;;;;5033909;28;20048;-62
2022/07/02 11:58:54;;;;;;;3.55;1.20;;;25.70;59.20;;;;;;5032096;28;20557;-63
2022/07/02 12:01:26;;;;;;;5.07;3.05;;;25.30;56.20;;;;;;5012451;28;20168;-63
2022/07/02 12:03:57;;;;;;;5.22;2.25;;;25.30;63.30;;;;;;5034141;28;20053;-64
2022/07/02 12:06:27;;;;;;;5.07;2.90;;;25.10;62.20;;;;;;5034764;28;20040;-63
2022/07/02 12:08:54;;;;;;;3.10;1.25;;;24.80;59.70;;;;;;5040320;28;20518;-62
2022/07/02 12:11:22;;;;;;;2.78;0.90;;;24.70;59.20;;;;;;5041705;28;20048;-63
2022/07/02 12:13:49;;;;;;;4.28;2.33;;;24.60;61.10;;;;;;5043242;28;20162;-61
2022/07/02 12:16:18;;;;;;;28.15;25.35;;;25.30;59.70;;;;;;5041162;28;20053;-61
2022/07/02 12:18:59;;;;;;;4.95;1.90;;;25.70;54.60;;;;;;5043590;28;20048;-61
2022/07/02 12:21:34;;;;;;;7.03;6.30;;;26.40;57.40;;;;;;5041385;28;20060;-61
2022/07/02 12:24:01;;;;;;;7.25;3.78;;;26.10;55.40;;;;;;5045096;28;20521;-58
2022/07/02 12:26:29;;;;;;;6.00;4.30;;;25.90;54.80;;;;;;5043971;28;20096;-58
2022/07/02 12:31:54;;;;;;;1.85;0.70;;;25.30;61.90;;;;;;5047603;28;20049;-61
2022/07/02 12:34:23;;;;;;;2.72;1.30;;;25.10;57.50;;;;;;5028785;28;20409;-58
2022/07/02 12:36:56;;;;;;;5.05;1.80;;;24.80;61.90;;;;;;5038582;28;20638;-61
2022/07/02 12:39:24;;;;;;;2.75;0.88;;;24.80;61.00;;;;;;5047434;28;20080;-61
2022/07/02 12:41:50;;;;;;;4.53;1.67;;;24.80;66.10;;;;;;5046188;28;20052;-61
2022/07/02 12:44:22;;;;;;;2.53;0.77;;;25.50;61.90;;;;;;5044546;28;20057;-61
2022/07/02 12:46:51;;;;;;;5.03;1.00;;;26.10;55.40;;;;;;5021689;28;20096;-63
2022/07/02 12:49:22;;;;;;;24.55;22.02;;;26.40;52.30;;;;;;5038781;28;20045;-61
2022/07/02 12:51:51;;;;;;;;;;;26.40;50.90;;;;;;5042452;28;20079;-61
2022/07/02 12:54:17;;;;;;;3.42;1.55;;;26.00;48.80;;;;;;5041656;28;19927;-61
2022/07/02 12:56:44;;;;;;;3.55;1.90;;;26.30;52.80;;;;;;5043744;28;20152;-58